Time;durP1;ratioP1;P1;durP2;ratioP2;P2;SDS_P1;SDS_P2;PMS_P1;PMS_P2;Temp;Humidity;BMP_temperature;BMP_pressure;BME280_temperature;BME280_humidity;BME280_pressure;Samples;Min_cycle;Max_cycle;Signal;HPM_P1;HPM_P2
2021/11/24 00:02:21;;;;;;;;;;;;;;;-1.70;80.24;97294.19;5095484;28;20000;-74
2021/11/24 00:04:47;;;;;;;;;;;;;;;-1.69;80.10;97292.41;5095242;28;20322;-75
2021/11/24 00:07:13;;;;;;;;;;;;;;;-1.67;80.06;97293.13;5077271;28;19990;-75
2021/11/24 00:09:39;;;;;;;;;;;;;;;-1.67;79.74;97288.78;5095098;28;20432;-75
2021/11/24 00:12:05;;;;;;;;;;;;;;;-1.66;79.78;97290.44;5095137;28;19961;-75
2021/11/24 00:14:31;;;;;;;;;;;;;;;-1.66;79.61;97285.28;5095115;28;19955;-74
2021/11/24 00:16:57;;;;;;;;;;;;;;;-1.65;79.66;97291.25;5094912;28;19965;-74
2021/11/24 00:19:23;;;;;;;;;;;;;;;-1.66;79.39;97285.28;5095245;28;19952;-75
2021/11/24 00:21:49;;;;;;;;;;;;;;;-1.67;79.11;97283.63;5095112;28;20468;-75
2021/11/24 00:24:15;;;;;;;;;;;;;;;-1.68;79.10;97283.75;5094831;28;19958;-75
2021/11/24 00:26:41;;;;;;;;;;;;;;;-1.72;78.98;97279.78;5076940;28;19955;-78
2021/11/24 00:29:07;;;;;;;;;;;;;;;-1.75;78.71;97280.84;5094765;28;19957;-75
2021/11/24 00:31:33;;;;;;;;;;;;;;;-1.79;78.94;97274.31;5094733;28;19954;-75
2021/11/24 00:34:02;;;;;;;;;;;;;;;-1.82;79.04;97284.03;5094912;28;19958;-75
2021/11/24 00:36:28;;;;;;;;;;;;;;;-1.85;79.01;97277.34;5094151;28;20428;-75
2021/11/24 00:38:54;;;;;;;;;;;;;;;-1.86;78.97;97278.31;5076915;28;20414;-75
2021/11/24 00:41:20;;;;;;;;;;;;;;;-1.88;79.20;97270.69;5094642;28;19948;-75
2021/11/24 00:43:45;;;;;;;;;;;;;;;-1.91;79.41;97275.25;5094644;28;19963;-74
2021/11/24 00:46:11;;;;;;;;;;;;;;;-1.92;79.68;97271.06;5094528;28;19959;-74
2021/11/24 00:48:37;;;;;;;;;;;;;;;-1.92;80.16;97266.72;5094647;28;19941;-75
2021/11/24 00:51:03;;;;;;;;;;;;;;;-1.92;80.18;97268.50;5094573;28;20397;-76
2021/11/24 00:53:29;;;;;;;;;;;;;;;-1.92;80.31;97265.94;5093895;28;19976;-75
2021/11/24 00:55:55;;;;;;;;;;;;;;;-1.91;80.34;97267.53;5094475;28;20306;-75
2021/11/24 00:58:21;;;;;;;;;;;;;;;-1.92;80.68;97260.78;5076605;28;19977;-75
2021/11/24 01:00:47;;;;;;;;;;;;;;;-1.93;80.80;97270.25;5094291;28;19953;-75
2021/11/24 01:03:13;;;;;;;;;;;;;;;-1.97;81.21;97268.84;5094226;28;19960;-75
2021/11/24 01:05:44;;;;;;;;;;;;;;;-1.96;81.20;97280.75;5094332;28;19949;-75
2021/11/24 01:08:14;;;;;;;;;;;;;;;-1.97;81.16;97271.44;5094186;28;19949;-76
2021/11/24 01:10:40;;;;;;;;;;;;;;;-1.94;81.28;97267.81;5094434;28;20403;-76
2021/11/24 01:13:06;;;;;;;;;;;;;;;-1.94;81.16;97265.22;5093992;28;19985;-76
2021/11/24 01:15:32;;;;;;;;;;;;;;;-1.96;81.24;97262.78;5093201;28;19951;-76
2021/11/24 01:17:58;;;;;;;;;;;;;;;-1.95;81.17;97269.56;5093962;28;20420;-76
2021/11/24 01:20:24;;;;;;;;;;;;;;;-1.97;81.00;97266.28;5093838;28;19953;-76
2021/11/24 01:22:50;;;;;;;;;;;;;;;-1.98;81.04;97263.84;5094142;28;19954;-77
2021/11/24 01:25:16;;;;;;;;;;;;;;;-1.98;81.25;97258.69;5093815;28;19997;-75
2021/11/24 01:27:42;;;;;;;;;;;;;;;-2.00;81.07;97256.22;5093981;28;20008;-75
2021/11/24 01:30:09;;;;;;;;;;;;;;;-2.02;81.50;97270.13;5093785;28;19955;-77
2021/11/24 01:32:36;;;;;;;;;;;;;;;-2.03;81.37;97261.63;5093836;28;19962;-76
2021/11/24 01:35:02;;;;;;;;;;;;;;;-2.06;81.42;97270.41;5092916;28;19953;-76
2021/11/24 01:37:29;;;;;;;;;;;;;;;-2.10;81.52;97256.16;5093578;28;19963;-76
2021/11/24 01:39:56;;;;;;;;;;;;;;;-2.11;82.12;97261.41;5093732;28;19955;-76
2021/11/24 01:42:22;;;;;;;;;;;;;;;-2.11;81.54;97258.81;5093823;28;19945;-76
2021/11/24 01:44:48;;;;;;;;;;;;;;;-2.10;81.71;97260.44;5093627;28;19979;-75
2021/11/24 01:47:14;;;;;;;;;;;;;;;-2.11;81.66;97257.06;5093576;28;19956;-75
2021/11/24 01:49:39;;;;;;;;;;;;;;;-2.10;81.52;97258.72;5096281;28;19958;-76
2021/11/24 01:52:05;;;;;;;;;;;;;;;-2.07;81.82;97252.50;5097702;28;20389;-76
2021/11/24 01:54:31;;;;;;;;;;;;;;;-2.05;81.62;97251.44;5098309;28;20077;-75
2021/11/24 01:56:58;;;;;;;;;;;;;;;-2.03;81.69;97253.91;5097831;28;20087;-76
2021/11/24 01:59:24;;;;;;;;;;;;;;;-2.02;81.58;97257.28;5097878;28;19954;-76
2021/11/24 02:01:51;;;;;;;;;;;;;;;-2.00;81.63;97252.84;5096569;28;19964;-76
2021/11/24 02:04:17;;;;;;;;;;;;;;;-1.99;81.60;97246.78;5097748;28;19961;-76
2021/11/24 02:06:43;;;;;;;;;;;;;;;-1.98;81.14;97246.66;5097618;28;19957;-76
2021/11/24 02:09:09;;;;;;;;;;;;;;;-2.00;81.11;97245.94;5097430;28;19955;-77
2021/11/24 02:11:37;;;;;;;;;;;;;;;-2.00;81.02;97250.28;5097889;28;19965;-77
2021/11/24 02:14:04;;;;;;;;;;;;;;;-2.00;81.23;97237.44;5097427;28;19969;-76
2021/11/24 02:16:30;;;;;;;;;;;;;;;-1.99;80.91;97237.31;5097556;28;19980;-77
2021/11/24 02:18:55;;;;;;;;;;;;;;;-2.00;80.88;97235.66;5097081;28;20335;-76
2021/11/24 02:21:21;;;;;;;;;;;;;;;-1.99;80.51;97236.50;5079337;28;19957;-76
2021/11/24 02:23:47;;;;;;;;;;;;;;;-1.98;81.07;97231.22;5097375;28;19986;-77
2021/11/24 02:26:13;;;;;;;;;;;;;;;-1.99;80.69;97224.47;5097454;28;19961;-76
2021/11/24 02:28:40;;;;;;;;;;;;;;;-1.99;80.45;97221.09;5097407;28;20033;-76
2021/11/24 02:31:06;;;;;;;;;;;;;;;-2.00;80.48;97220.25;5097223;28;19959;-76
2021/11/24 02:33:32;;;;;;;;;;;;;;;-1.99;80.44;97214.19;5097138;28;19960;-76
2021/11/24 02:35:58;;;;;;;;;;;;;;;-2.00;80.39;97214.28;5097332;28;19977;-75
2021/11/24 02:38:24;;;;;;;;;;;;;;;-2.00;80.43;97204.00;5097154;28;20003;-76
2021/11/24 02:40:50;;;;;;;;;;;;;;;-1.98;80.69;97213.22;5097005;28;20037;-76
2021/11/24 02:43:16;;;;;;;;;;;;;;;-1.98;80.78;97205.53;5097091;28;20435;-76
2021/11/24 02:45:42;;;;;;;;;;;;;;;-1.97;80.68;97196.88;5096933;28;20050;-76
2021/11/24 02:48:07;;;;;;;;;;;;;;;-1.98;80.97;97200.38;5097018;28;20396;-76
2021/11/24 02:50:33;;;;;;;;;;;;;;;-1.99;80.53;97191.06;5095697;28;20000;-76
2021/11/24 02:52:59;;;;;;;;;;;;;;;-1.97;80.52;97193.50;5096603;28;20018;-76
2021/11/24 02:55:25;;;;;;;;;;;;;;;-1.98;80.39;97186.72;5097019;28;19957;-75
2021/11/24 02:57:52;;;;;;;;;;;;;;;-1.98;80.68;97186.72;5096539;28;19969;-75
2021/11/24 03:00:21;;;;;;;;;;;;;;;-2.01;80.28;97192.94;5095986;28;19956;-75
2021/11/24 03:02:47;;;;;;;;;;;;;;;-2.02;80.02;97193.03;5096533;28;19959;-75
2021/11/24 03:05:14;;;;;;;;;;;;;;;-2.05;80.33;97188.97;5096598;28;19948;-75
2021/11/24 03:07:40;;;;;;;;;;;;;;;-2.09;79.96;97179.84;5096482;28;19950;-76
2021/11/24 03:10:07;;;;;;;;;;;;;;;-2.14;80.09;97176.81;5096650;28;19968;-77
2021/11/24 03:12:33;;;;;;;;;;;;;;;-2.16;80.37;97179.53;5078079;28;19954;-78
2021/11/24 03:14:59;;;;;;;;;;;;;;;-2.16;80.40;97178.69;5096426;28;19952;-78
2021/11/24 03:17:25;;;;;;;;;;;;;;;-2.19;80.13;97179.75;5096128;28;20078;-78
2021/11/24 03:19:51;;;;;;;;;;;;;;;-2.20;80.28;97177.31;5096348;28;19951;-78
2021/11/24 03:22:23;;;;;;;;;;;;;;;-2.24;79.90;97163.88;5096391;28;19950;-78
2021/11/24 03:24:54;;;;;;;;;;;;;;;-2.25;80.42;97172.53;5096136;28;19965;-78
2021/11/24 03:27:22;;;;;;;;;;;;;;;-2.26;80.32;97169.13;5096073;28;20300;-77
2021/11/24 03:29:48;;;;;;;;;;;;;;;-2.25;80.72;97159.66;5096152;28;19953;-77
2021/11/24 03:32:13;;;;;;;;;;;;;;;-2.23;80.90;97162.94;5094862;28;19977;-77
2021/11/24 03:34:39;;;;;;;;;;;;;;;-2.23;80.80;97162.94;5095860;28;20402;-77
2021/11/24 03:37:05;;;;;;;;;;;;;;;-2.23;80.66;97162.94;5095827;28;20402;-77
2021/11/24 03:39:31;;;;;;;;;;;;;;;-2.25;80.53;97155.38;5095796;28;19955;-77
2021/11/24 03:41:57;;;;;;;;;;;;;;;-2.25;80.63;97152.81;5095893;28;20335;-77
2021/11/24 03:44:23;;;;;;;;;;;;;;;-2.28;80.43;97150.47;5077536;28;19946;-77
2021/11/24 03:46:49;;;;;;;;;;;;;;;-2.28;80.39;97152.22;5077530;28;19948;-77
2021/11/24 03:49:15;;;;;;;;;;;;;;;-2.32;80.57;97138.78;5095742;28;20038;-77
2021/11/24 03:51:41;;;;;;;;;;;;;;;-2.34;80.70;97137.28;5095421;28;19958;-77
2021/11/24 03:54:07;;;;;;;;;;;;;;;-2.34;80.70;97143.22;5095619;28;20072;-77
2021/11/24 03:56:32;;;;;;;;;;;;;;;-2.33;80.43;97144.03;5095493;28;19958;-77
2021/11/24 03:58:58;;;;;;;;;;;;;;;-2.33;80.54;97150.03;5094477;28;20009;-77
2021/11/24 04:01:24;;;;;;;;;;;;;;;-2.33;80.57;97136.34;5095444;28;19953;-78
2021/11/24 04:03:50;;;;;;;;;;;;;;;-2.33;80.74;97141.47;5095259;28;19957;-76
2021/11/24 04:06:16;;;;;;;;;;;;;;;-2.32;80.82;97143.13;5095343;28;20420;-77
2021/11/24 04:08:42;;;;;;;;;;;;;;;-2.32;80.73;97135.41;5095339;28;19952;-77
2021/11/24 04:11:08;;;;;;;;;;;;;;;-2.33;81.27;97141.47;5094733;28;19956;-77
2021/11/24 04:13:34;;;;;;;;;;;;;;;-2.35;81.55;97135.63;5095086;28;19980;-77
2021/11/24 04:16:00;;;;;;;;;;;;;;;-2.34;81.82;97145.81;5095400;28;19951;-77
2021/11/24 04:18:26;;;;;;;;;;;;;;;-2.34;81.98;97137.28;5083572;28;20030;-77
2021/11/24 04:20:55;;;;;;;;;;;;;;;-2.32;82.16;97136.22;5095068;28;19961;-77
2021/11/24 04:23:21;;;;;;;;;;;;;;;-2.29;82.64;97137.72;5095253;28;19971;-77
2021/11/24 04:25:47;;;;;;;;;;;;;;;-2.28;82.60;97126.53;5095015;28;19950;-78
2021/11/24 04:28:13;;;;;;;;;;;;;;;-2.26;82.74;97124.66;5094804;28;20790;-77
2021/11/24 04:30:39;;;;;;;;;;;;;;;-2.23;82.93;97119.25;5094928;28;19963;-77
2021/11/24 04:33:05;;;;;;;;;;;;;;;-2.22;83.01;97120.91;5094675;28;20385;-77
2021/11/24 04:35:31;;;;;;;;;;;;;;;-2.22;83.54;97115.78;5094773;28;20035;-77
2021/11/24 04:37:57;;;;;;;;;;;;;;;-2.20;83.33;97118.22;5094499;28;19986;-77
2021/11/24 04:40:23;;;;;;;;;;;;;;;-2.19;83.29;97112.94;5094739;28;19955;-78
2021/11/24 04:42:50;;;;;;;;;;;;;;;-2.17;83.40;97118.78;5076266;28;19959;-77
2021/11/24 04:45:16;;;;;;;;;;;;;;;-2.19;83.16;97110.38;5094671;28;20351;-76
2021/11/24 04:47:42;;;;;;;;;;;;;;;-2.18;83.50;97119.72;5094414;28;19955;-76
2021/11/24 04:50:09;;;;;;;;;;;;;;;-2.17;83.18;97115.41;5094661;28;19958;-76
2021/11/24 04:52:35;;;;;;;;;;;;;;;-2.15;83.14;97113.53;5094187;28;19964;-76
2021/11/24 04:55:02;;;;;;;;;;;;;;;-2.12;83.40;97108.13;5093158;28;19955;-77
2021/11/24 04:57:28;;;;;;;;;;;;;;;-2.10;83.41;97112.22;5094191;28;19955;-77
2021/11/24 04:59:53;;;;;;;;;;;;;;;-2.08;83.50;97112.09;5076013;28;20417;-77
2021/11/24 05:02:21;;;;;;;;;;;;;;;-2.08;83.63;97110.34;5093814;28;20278;-77
2021/11/24 05:04:47;;;;;;;;;;;;;;;-2.08;83.87;97105.22;5094237;28;19962;-77
2021/11/24 05:07:13;;;;;;;;;;;;;;;-2.08;84.16;97107.78;5094167;28;19955;-77
2021/11/24 05:09:39;;;;;;;;;;;;;;;-2.07;84.32;97106.84;5076115;28;19961;-77
2021/11/24 05:12:05;;;;;;;;;;;;;;;-2.03;84.40;97109.19;5093979;28;20426;-76
2021/11/24 05:14:34;;;;;;;;;;;;;;;-1.99;84.19;97110.56;5094050;28;19966;-74
2021/11/24 05:17:04;;;;;;;;;;;;;;;-1.95;84.42;97110.19;5094516;28;19962;-74
2021/11/24 05:19:32;;;;;;;;;;;;;;;-1.89;84.51;97103.72;5093078;28;19970;-76
2021/11/24 05:21:58;;;;;;;;;;;;;;;-1.86;84.47;97106.88;5093937;28;20435;-76
2021/11/24 05:24:25;;;;;;;;;;;;;;;-1.82;84.44;97109.22;5093847;28;20438;-75
2021/11/24 05:26:51;;;;;;;;;;;;;;;-1.78;84.45;97108.03;5093891;28;19977;-77
2021/11/24 05:29:17;;;;;;;;;;;;;;;-1.74;84.84;97106.81;5094026;28;19955;-77
2021/11/24 05:31:43;;;;;;;;;;;;;;;-1.71;84.68;97101.44;5093743;28;19952;-76
2021/11/24 05:34:09;;;;;;;;;;;;;;;-1.68;84.26;97101.16;5094225;28;20288;-76
2021/11/24 05:36:35;;;;;;;;;;;;;;;-1.66;84.17;97102.69;5093817;28;19950;-76
2021/11/24 05:39:07;;;;;;;;;;;;;;;-1.67;83.68;97095.09;5093795;28;19964;-76
2021/11/24 05:41:37;;;;;;;;;;;;;;;-1.68;83.90;97096.03;5093708;28;20406;-77
2021/11/24 05:44:16;;;;;;;;;;;;;;;-1.67;84.12;97090.75;5094214;28;19951;-77
2021/11/24 05:46:53;;;;;;;;;;;;;;;-1.66;83.76;97089.00;5093123;28;19951;-77
2021/11/24 05:49:19;;;;;;;;;;;;;;;-1.63;84.02;97087.00;5093756;28;19955;-77
2021/11/24 05:51:45;;;;;;;;;;;;;;;-1.63;83.97;97087.00;5093609;28;19950;-77
2021/11/24 05:54:11;;;;;;;;;;;;;;;-1.66;84.27;97086.44;5093793;28;19982;-77
2021/11/24 05:56:38;;;;;;;;;;;;;;;-1.68;84.30;97083.16;5093601;28;19970;-76
2021/11/24 05:59:05;;;;;;;;;;;;;;;-1.71;84.10;97073.94;5093776;28;19972;-77
2021/11/24 06:01:31;;;;;;;;;;;;;;;-1.75;84.42;97075.13;5093433;28;19952;-77
2021/11/24 06:03:57;;;;;;;;;;;;;;;-1.77;84.22;97069.31;5093845;28;19949;-76
2021/11/24 06:06:23;;;;;;;;;;;;;;;-1.81;84.00;97073.06;5093565;28;20274;-76
2021/11/24 06:08:49;;;;;;;;;;;;;;;-1.86;84.15;97073.44;5093387;28;20049;-76
2021/11/24 06:11:15;;;;;;;;;;;;;;;-1.87;84.04;97076.97;5093635;28;19959;-76
2021/11/24 06:13:41;;;;;;;;;;;;;;;-1.86;84.10;97076.03;5093273;28;20043;-76
2021/11/24 06:16:07;;;;;;;;;;;;;;;-1.86;83.88;97078.59;5093521;28;20424;-76
2021/11/24 06:18:32;;;;;;;;;;;;;;;-1.84;83.86;97076.72;5093591;28;19963;-77
2021/11/24 06:20:58;;;;;;;;;;;;;;;-1.83;83.85;97080.09;5093456;28;20399;-77
2021/11/24 06:23:24;;;;;;;;;;;;;;;-1.83;83.50;97074.94;5093796;28;19949;-75
2021/11/24 06:25:50;;;;;;;;;;;;;;;-1.88;83.42;97072.75;5093516;28;19954;-77
2021/11/24 06:28:16;;;;;;;;;;;;;;;-1.90;83.53;97066.91;5078334;28;20058;-78
2021/11/24 06:30:42;;;;;;;;;;;;;;;-1.90;83.78;97074.63;5093349;28;19991;-78
2021/11/24 06:33:08;;;;;;;;;;;;;;;-1.87;83.79;97076.13;5093460;28;20016;-77
2021/11/24 06:35:34;;;;;;;;;;;;;;;-1.89;83.33;97078.84;5095375;28;19951;-76
2021/11/24 06:38:00;;;;;;;;;;;;;;;-1.88;83.51;97075.31;5096082;28;20030;-76
2021/11/24 06:40:26;;;;;;;;;;;;;;;-1.91;83.18;97078.16;5078927;28;19955;-76
2021/11/24 06:42:52;;;;;;;;;;;;;;;-1.90;83.66;97078.97;5079010;28;19951;-76
2021/11/24 06:45:18;;;;;;;;;;;;;;;-1.89;84.08;97075.44;5078840;28;19955;-74
2021/11/24 06:47:44;;;;;;;;;;;;;;;-1.86;83.43;97072.63;5096652;28;19961;-75
2021/11/24 06:50:10;;;;;;;;;;;;;;;-1.84;83.62;97069.00;5096995;28;19950;-75
2021/11/24 06:52:36;;;;;;;;;;;;;;;-1.80;83.26;97072.16;5096542;28;19960;-76
2021/11/24 06:55:03;;;;;;;;;;;;;;;-1.75;83.38;97064.03;5096963;28;19968;-76
2021/11/24 06:57:29;;;;;;;;;;;;;;;-1.73;83.23;97060.41;5096734;28;20324;-76
2021/11/24 06:59:55;;;;;;;;;;;;;;;-1.67;82.72;97064.25;5096768;28;19964;-76
2021/11/24 07:02:21;;;;;;;;;;;;;;;-1.67;82.78;97057.34;5096341;28;19949;-76
2021/11/24 07:04:47;;;;;;;;;;;;;;;-1.66;82.90;97055.56;5078553;28;20040;-76
2021/11/24 07:07:12;;;;;;;;;;;;;;;-1.66;82.67;97056.41;5096410;28;20042;-75
2021/11/24 07:09:40;;;;;;;;;;;;;;;-1.65;82.45;97060.59;5096879;28;20311;-76
2021/11/24 07:12:07;;;;;;;;;;;;;;;-1.67;82.54;97054.75;5096524;28;19956;-76
2021/11/24 07:14:33;;;;;;;;;;;;;;;-1.65;82.32;97057.22;5096401;28;19959;-77
2021/11/24 07:16:59;;;;;;;;;;;;;;;-1.64;82.22;97061.41;5096693;28;20417;-76
2021/11/24 07:19:25;;;;;;;;;;;;;;;-1.61;82.17;97068.06;5096479;28;19975;-75
2021/11/24 07:21:51;;;;;;;;;;;;;;;-1.63;82.07;97066.44;5096230;28;19961;-75
2021/11/24 07:24:18;;;;;;;;;;;;;;;-1.64;81.90;97072.53;5095497;28;19960;-75
2021/11/24 07:26:44;;;;;;;;;;;;;;;-1.65;81.81;97068.31;5096176;28;19966;-75
2021/11/24 07:29:10;;;;;;;;;;;;;;;-1.62;81.94;97074.94;5096048;28;19949;-77
2021/11/24 07:31:37;;;;;;;;;;;;;;;-1.58;81.81;97075.53;5096139;28;19955;-75
2021/11/24 07:34:03;;;;;;;;;;;;;;;-1.49;81.95;97079.91;5096024;28;20318;-76
2021/11/24 07:36:29;;;;;;;;;;;;;;;-1.40;81.69;97079.16;5095918;28;20045;-76
2021/11/24 07:38:55;;;;;;;;;;;;;;;-1.37;81.62;97071.16;5094723;28;20012;-76
2021/11/24 07:41:20;;;;;;;;;;;;;;;-1.34;81.14;97075.25;5095901;28;19973;-76
2021/11/24 07:43:46;;;;;;;;;;;;;;;-1.30;81.34;97080.03;5095856;28;19954;-76
2021/11/24 07:46:12;;;;;;;;;;;;;;;-1.23;81.14;97065.69;5094284;28;19962;-76
2021/11/24 07:48:38;;;;;;;;;;;;;;;-1.17;80.73;97066.13;5095920;28;19952;-75
2021/11/24 07:51:04;;;;;;;;;;;;;;;-1.11;80.78;97063.03;5077863;28;20325;-76
2021/11/24 07:53:30;;;;;;;;;;;;;;;-1.08;80.54;97061.00;5094889;28;19987;-76
2021/11/24 07:55:56;;;;;;;;;;;;;;;-1.02;80.64;97059.69;5095701;28;19954;-76
2021/11/24 07:58:22;;;;;;;;;;;;;;;-0.95;80.18;97065.13;5077712;28;19965;-75
2021/11/24 08:00:48;;;;;;;;;;;;;;;-0.87;80.33;97053.22;5095850;28;20416;-76
2021/11/24 08:03:14;;;;;;;;;;;;;;;-0.59;80.42;97068.88;5095326;28;20045;-76
2021/11/24 08:05:40;;;;;;;;;;;;;;;-0.39;78.81;97063.78;5095359;28;19952;-76
2021/11/24 08:08:06;;;;;;;;;;;;;;;-0.36;78.68;97063.50;5095338;28;19955;-76
2021/11/24 08:10:32;;;;;;;;;;;;;;;-0.37;78.74;97052.38;5095268;28;19954;-76
2021/11/24 08:12:58;;;;;;;;;;;;;;;-0.37;77.59;97059.31;5095315;28;19961;-76
2021/11/24 08:15:24;;;;;;;;;;;;;;;-0.19;77.67;97049.13;5095076;28;19952;-76
2021/11/24 08:17:50;;;;;;;;;;;;;;;0.10;77.48;97055.09;5095368;28;19960;-76
2021/11/24 08:20:16;;;;;;;;;;;;;;;0.39;75.13;97043.91;5095101;28;19983;-76
2021/11/24 08:22:42;;;;;;;;;;;;;;;0.57;74.53;97034.50;5077257;28;19966;-76
2021/11/24 08:25:08;;;;;;;;;;;;;;;0.76;83.13;97041.38;5094030;28;19964;-76
2021/11/24 08:27:35;;;;;;;;;;;;;;;1.61;97.10;97034.25;5095109;28;19980;-77
2021/11/24 08:30:01;;;;;;;;;;;;;;;2.35;79.87;97026.28;5094850;28;19953;-78
2021/11/24 08:32:27;;;;;;;;;;;;;;;2.59;74.98;97028.22;5074947;28;20347;-77
2021/11/24 08:34:53;;;;;;;;;;;;;;;2.63;72.29;97020.00;5094695;28;19960;-77
2021/11/24 08:37:19;;;;;;;;;;;;;;;2.59;71.13;97017.88;5094713;28;19959;-77
2021/11/24 08:39:47;;;;;;;;;;;;;;;2.54;70.61;97015.75;5094880;28;19991;-76
2021/11/24 08:42:13;;;;;;;;;;;;;;;2.46;70.77;97014.84;5094836;28;19952;-76
2021/11/24 08:44:39;;;;;;;;;;;;;;;2.37;71.07;97022.59;5094536;28;20306;-76
2021/11/24 08:47:05;;;;;;;;;;;;;;;2.39;71.24;97014.66;5094824;28;19954;-76
2021/11/24 08:49:31;;;;;;;;;;;;;;;2.41;71.12;97012.72;5094400;28;20011;-76
2021/11/24 08:51:57;;;;;;;;;;;;;;;2.28;70.62;97014.91;5094493;28;19987;-76
2021/11/24 08:54:22;;;;;;;;;;;;;;;2.28;71.73;97017.50;5094344;28;20345;-76
2021/11/24 08:56:49;;;;;;;;;;;;;;;2.34;71.43;97009.94;5094214;28;19959;-77
2021/11/24 08:59:15;;;;;;;;;;;;;;;2.38;69.22;96997.53;5094231;28;19973;-75
2021/11/24 09:01:41;;;;;;;;;;;;;;;2.43;70.63;97000.44;5076232;28;20342;-75
2021/11/24 09:04:07;;;;;;;;;;;;;;;2.55;71.30;97004.41;5094006;28;19964;-75
2021/11/24 09:06:34;;;;;;;;;;;;;;;2.67;71.48;97001.53;5094167;28;19964;-75
2021/11/24 09:09:00;;;;;;;;;;;;;;;2.71;70.83;96995.09;5094250;28;19955;-75
2021/11/24 09:11:26;;;;;;;;;;;;;;;2.60;71.64;97002.19;5094056;28;20309;-75
2021/11/24 09:13:52;;;;;;;;;;;;;;;2.53;72.71;97003.75;5094100;28;20325;-75
2021/11/24 09:16:18;;;;;;;;;;;;;;;2.53;72.57;96995.97;5094154;28;20426;-75
2021/11/24 09:18:44;;;;;;;;;;;;;;;2.52;72.34;96993.53;5093825;28;19969;-75
2021/11/24 09:21:10;;;;;;;;;;;;;;;2.55;73.27;96990.66;5094185;28;19958;-75
2021/11/24 09:23:38;;;;;;;;;;;;;;;2.57;73.07;96993.91;5094204;28;19955;-75
2021/11/24 09:28:49;;;;;;;;;;;;;;;2.64;72.20;96987.13;5094222;28;20338;-75
2021/11/24 09:31:17;;;;;;;;;;;;;;;2.73;73.15;96987.97;5092634;28;19968;-75
2021/11/24 09:33:43;;;;;;;;;;;;;;;2.84;72.82;96983.34;5092966;28;19952;-75
2021/11/24 09:36:10;;;;;;;;;;;;;;;2.89;71.93;96969.91;5093738;28;19954;-75
2021/11/24 09:38:36;;;;;;;;;;;;;;;2.89;71.31;96959.56;5093438;28;19961;-75
2021/11/24 09:41:04;;;;;;;;;;;;;;;2.94;71.78;96959.91;5093778;28;20435;-74
2021/11/24 09:43:33;;;;;;;;;;;;;;;3.02;72.04;96961.69;5093724;28;20421;-75
2021/11/24 09:45:59;;;;;;;;;;;;;;;3.12;71.15;96957.19;5075953;28;20022;-75
2021/11/24 09:48:26;;;;;;;;;;;;;;;3.20;71.61;96951.25;5093739;28;19958;-75
2021/11/24 09:50:54;;;;;;;;;;;;;;;3.31;72.08;96947.53;5093788;28;19958;-75
2021/11/24 09:53:22;;;;;;;;;;;;;;;3.28;69.93;96934.91;5093160;28;19976;-75
2021/11/24 09:55:48;;;;;;;;;;;;;;;3.28;70.90;96930.53;5093600;28;19962;-75
2021/11/24 09:58:15;;;;;;;;;;;;;;;3.26;71.13;96935.06;5093692;28;19956;-75
2021/11/24 10:00:42;;;;;;;;;;;;;;;3.24;70.89;96929.22;5093429;28;19974;-74
2021/11/24 10:03:08;;;;;;;;;;;;;;;3.27;70.82;96915.13;5093534;28;19964;-75
2021/11/24 10:05:35;;;;;;;;;;;;;;;3.11;72.19;96918.47;5093359;28;19975;-75
2021/11/24 10:08:01;;;;;;;;;;;;;;;2.91;72.31;96925.72;5074321;28;19957;-75
2021/11/24 10:10:27;;;;;;;;;;;;;;;2.93;71.91;96923.78;5095670;28;19959;-74
2021/11/24 10:12:54;;;;;;;;;;;;;;;3.03;72.40;96914.91;5097462;28;19949;-75
2021/11/24 10:15:41;;;;;;;;;;;;;;;3.08;72.07;96911.03;5096674;28;19951;-74
2021/11/24 10:18:17;;;;;;;;;;;;;;;3.10;72.11;96898.72;5097544;28;19947;-75
2021/11/24 10:21:03;;;;;;;;;;;;;;;3.24;71.77;96900.69;5097241;28;19974;-75
2021/11/24 10:23:35;;;;;;;;;;;;;;;3.34;71.59;96896.19;5076352;28;19967;-74
2021/11/24 10:26:13;;;;;;;;;;;;;;;3.38;72.74;96881.94;5096467;28;19960;-75
2021/11/24 10:28:39;;;;;;;;;;;;;;;3.49;71.28;96883.38;5096496;28;19963;-75
2021/11/24 10:31:21;;;;;;;;;;;;;;;3.66;72.43;96879.00;5097313;28;19962;-75
2021/11/24 10:33:47;;;;;;;;;;;;;;;3.81;71.39;96872.16;5097055;28;19955;-75
2021/11/24 10:36:14;;;;;;;;;;;;;;;3.86;70.36;96864.72;5095888;28;20012;-75
2021/11/24 10:38:41;;;;;;;;;;;;;;;3.90;70.38;96859.97;5097055;28;19970;-75
2021/11/24 10:41:10;;;;;;;;;;;;;;;3.97;70.03;96852.34;5097809;28;19966;-75
2021/11/24 10:43:43;;;;;;;;;;;;;;;3.97;71.79;96860.94;5096865;28;20421;-75
2021/11/24 10:46:11;;;;;;;;;;;;;;;4.03;71.55;96859.47;5079058;28;20343;-76
2021/11/24 10:48:37;;;;;;;;;;;;;;;4.15;70.91;96854.75;5096986;28;19959;-75
2021/11/24 10:51:23;;;;;;;;;;;;;;;4.18;70.08;96849.19;5096774;28;19959;-76
2021/11/24 10:54:08;;;;;;;;;;;;;;;4.04;69.84;96845.53;5097055;28;19993;-75
2021/11/24 10:56:54;;;;;;;;;;;;;;;3.86;69.67;96833.56;5079169;28;19956;-75
2021/11/24 10:59:20;;;;;;;;;;;;;;;3.75;69.45;96828.72;5095697;28;20324;-75
2021/11/24 11:01:46;;;;;;;;;;;;;;;3.80;69.66;96828.22;5096615;28;19952;-75
2021/11/24 11:04:13;;;;;;;;;;;;;;;3.69;70.34;96821.59;5096557;28;20057;-75
2021/11/24 11:06:41;;;;;;;;;;;;;;;3.51;70.95;96829.56;5096609;28;19967;-75
2021/11/24 11:09:07;;;;;;;;;;;;;;;3.34;70.61;96833.13;5096421;28;19981;-75
2021/11/24 11:11:35;;;;;;;;;;;;;;;3.27;71.36;96834.75;5078686;28;19967;-75
2021/11/24 11:14:15;;;;;;;;;;;;;;;3.20;72.02;96827.63;5096406;28;19949;-75
2021/11/24 11:16:42;;;;;;;;;;;;;;;3.12;72.38;96824.22;5079241;28;20431;-75
2021/11/24 11:19:08;;;;;;;;;;;;;;;3.06;71.98;96815.31;5095363;28;20031;-75
2021/11/24 11:21:35;;;;;;;;;;;;;;;2.98;71.38;96812.72;5096224;28;19963;-76
2021/11/24 11:24:05;;;;;;;;;;;;;;;2.88;71.97;96805.13;5096315;28;19969;-75
2021/11/24 11:26:31;;;;;;;;;;;;;;;2.84;72.64;96803.81;5096304;28;20327;-75
2021/11/24 11:28:57;;;;;;;;;;;;;;;2.75;70.16;96789.22;5096084;28;19952;-75
2021/11/24 11:31:27;;;;;;;;;;;;;;;2.61;70.76;96785.50;5096115;28;19960;-75
2021/11/24 11:33:55;;;;;;;;;;;;;;;2.44;71.77;96788.03;5095988;28;19954;-75
2021/11/24 11:36:21;;;;;;;;;;;;;;;2.48;73.61;96791.13;5096255;28;19953;-76
2021/11/24 11:38:49;;;;;;;;;;;;;;;2.57;73.42;96779.00;5096275;28;19946;-75
2021/11/24 11:41:16;;;;;;;;;;;;;;;2.62;73.63;96772.41;5095880;28;20330;-75
2021/11/24 11:43:43;;;;;;;;;;;;;;;2.63;74.33;96778.38;5095789;28;19948;-75
2021/11/24 11:46:17;;;;;;;;;;;;;;;2.63;73.70;96776.59;5096004;28;19969;-76
2021/11/24 11:48:44;;;;;;;;;;;;;;;2.61;72.53;96768.16;5074048;28;19956;-75
2021/11/24 11:51:11;;;;;;;;;;;;;;;2.57;72.83;96763.47;5095696;28;20326;-76
2021/11/24 11:53:41;;;;;;;;;;;;;;;2.55;74.01;96755.06;5095502;28;19979;-75
2021/11/24 11:56:10;;;;;;;;;;;;;;;2.58;74.20;96752.97;5095730;28;19964;-75
2021/11/24 11:58:46;;;;;;;;;;;;;;;2.64;74.04;96744.53;5095383;28;19955;-75
2021/11/24 12:01:13;;;;;;;;;;;;;;;2.70;74.41;96744.88;5095605;28;19951;-76
2021/11/24 12:03:52;;;;;;;;;;;;;;;2.72;73.68;96748.13;5094747;28;19963;-76
2021/11/24 12:06:19;;;;;;;;;;;;;;;2.76;73.72;96752.81;5095208;28;19950;-76
2021/11/24 12:09:04;;;;;;;;;;;;;;;2.82;74.11;96741.00;5095468;28;19956;-75
2021/11/24 12:11:48;;;;;;;;;;;;;;;2.86;73.16;96734.53;5095209;28;19956;-75
2021/11/24 12:14:33;;;;;;;;;;;;;;;2.89;74.20;96735.97;5095326;28;19947;-75
2021/11/24 12:16:59;;;;;;;;;;;;;;;2.88;72.76;96713.63;5069205;28;20394;-75
2021/11/24 12:19:33;;;;;;;;;;;;;;;2.80;73.35;96717.03;5095118;28;20025;-75
2021/11/24 12:21:59;;;;;;;;;;;;;;;2.74;73.78;96715.09;5095570;28;19970;-75
2021/11/24 12:24:38;;;;;;;;;;;;;;;2.68;73.81;96706.19;5095302;28;19953;-76
2021/11/24 12:27:04;;;;;;;;;;;;;;;2.66;73.98;96694.38;5095133;28;20050;-76
2021/11/24 12:29:44;;;;;;;;;;;;;;;2.70;73.73;96695.69;5094783;28;19955;-76
2021/11/24 12:32:10;;;;;;;;;;;;;;;2.68;73.81;96682.88;5093041;28;20411;-75
2021/11/24 12:34:51;;;;;;;;;;;;;;;2.64;73.64;96690.16;5094946;28;19992;-75
2021/11/24 12:37:18;;;;;;;;;;;;;;;2.62;73.81;96681.78;5071193;28;19949;-75
2021/11/24 12:39:44;;;;;;;;;;;;;;;2.62;74.24;96686.13;5094554;28;19964;-76
2021/11/24 12:42:11;;;;;;;;;;;;;;;2.64;74.27;96684.19;5094924;28;19955;-76
2021/11/24 12:44:47;;;;;;;;;;;;;;;2.67;73.58;96673.50;5094740;28;19953;-75
2021/11/24 12:47:14;;;;;;;;;;;;;;;2.72;73.89;96670.44;5094642;28;20326;-75
2021/11/24 12:49:40;;;;;;;;;;;;;;;2.75;73.53;96670.91;5094638;28;20468;-76
2021/11/24 12:52:06;;;;;;;;;;;;;;;2.79;73.12;96661.03;5094395;28;19958;-76
2021/11/24 12:54:32;;;;;;;;;;;;;;;2.86;73.37;96667.19;5094832;28;19982;-76